Flight Track Log - Related Links

Times and Time Zones

All times are in EDT time to prevent confusion due to time zone crossing. See the ICE631 flight status page for this flight to view local times or setup timezone preferences in your user account.

Time Position Orientation Groundspeed Altitude Reporting Facility
EDT Latitude Longitude Course Direction KTS MPH feet Rate Location/Type
Tue 01:38:42 PM 64.0140 -22.8500 255° West 260 299 5,500  Level FlightAware ADS-B
Tue 01:39:12 PM 64.0050 -22.9330 256° West 263 303 6,900 2,800 Climbing FlightAware ADS-B
Tue 01:39:27 PM 64.0000 -22.9760 255° West 267 307 7,600 2,850 Climbing FlightAware ADS-B
Tue 01:39:52 PM 63.9920 -23.0420 255° West 263 303 8,800 2,769 Climbing FlightAware ADS-B
Tue 01:40:32 PM 63.9790 -23.1500 255° West 269 310 10,600 1,906 Climbing FlightAware ADS-B
Tue 01:41:17 PM 63.9640 -23.2830 256° West 311 358 11,500 1,694 Climbing FlightAware ADS-B
Tue 01:41:57 PM 63.9490 -23.4160 256° West 324 373 13,000 2,259 Climbing FlightAware ADS-B
Tue 01:42:42 PM 63.9310 -23.5620 254° West 332 382 14,700 2,259 Climbing FlightAware ADS-B
Tue 01:43:22 PM 63.9150 -23.6950 255° West 342 394 16,200 2,329 Climbing FlightAware ADS-B
Tue 01:44:07 PM 63.8950 -23.8600 255° West 350 403 18,000 2,259 Climbing FlightAware ADS-B
Tue 01:44:47 PM 63.8770 -24.0040 254° West 360 414 19,400 2,025 Climbing FlightAware ADS-B
Tue 01:45:27 PM 63.8580 -24.1510 254° West 369 425 20,700 1,835 Climbing FlightAware ADS-B
Tue 01:46:12 PM 63.8380 -24.3120 254° West 376 433 22,000 1,835 Climbing FlightAware ADS-B
Tue 01:46:52 PM 63.8190 -24.4640 254° West 380 437 23,300 1,765 Climbing FlightAware ADS-B
Tue 01:47:37 PM 63.7960 -24.6420 254° West 390 449 24,500 1,553 Climbing FlightAware ADS-B
Tue 01:48:17 PM 63.7740 -24.8040 253° West 399 459 25,500 1,575 Climbing FlightAware ADS-B
Tue 01:48:57 PM 63.7540 -24.9600 254° West 402 463 26,600 1,341 Climbing FlightAware ADS-B
Tue 01:49:42 PM 63.7300 -25.1400 253° West 412 474 27,400 1,129 Climbing FlightAware ADS-B
Tue 01:50:22 PM 63.7080 -25.3060 253° West 421 484 28,200 1,271 Climbing FlightAware ADS-B
Tue 01:51:07 PM 63.6810 -25.5040 253° West 427 491 29,200 1,200 Climbing FlightAware ADS-B
Tue 01:51:47 PM 63.6570 -25.6750 253° West 434 499 29,900 1,275 Climbing FlightAware ADS-B
Tue 01:52:27 PM 63.6340 -25.8430 253° West 432 497 30,900 1,200 Climbing FlightAware ADS-B
Tue 01:53:12 PM 63.6070 -26.0360 253° West 437 503 31,600 1,059 Climbing FlightAware ADS-B
Tue 01:53:52 PM 63.5830 -26.2050 252° West 438 504 32,400 1,125 Climbing FlightAware ADS-B
Tue 01:54:32 PM 63.5580 -26.3830 253° West 441 507 33,100 1,129 Climbing FlightAware ADS-B
Tue 01:55:17 PM 63.5290 -26.5820 252° West 440 506 34,000 635 Climbing FlightAware ADS-B
Tue 01:55:57 PM 63.5040 -26.7510 252° West 442 509 34,000  Level FlightAware ADS-B
Tue 01:56:42 PM 63.4750 -26.9450 252° West 436 502 34,000  Level FlightAware ADS-B
Tue 01:57:22 PM 63.4500 -27.1160 252° West 434 499 34,000  Level FlightAware ADS-B
Tue 01:58:17 PM 63.4190 -27.3310 252° West 433 498 34,000  Level FlightAware ADS-B
Tue 01:58:32 PM 63.4667 -26.9667 252° West 431 496 34,000  Level ETMS Enhanced Traffic Management System
Tue 01:58:57 PM 63.3980 -27.4760 252° West 433 498 34,000  Level FlightAware ADS-B
Tue 01:59:42 PM 63.3650 -27.7030 252° West 430 495 34,000  Level FlightAware ADS-B
Tue 02:00:27 PM 63.3360 -27.8920 251° West 430 495 34,000  Level FlightAware ADS-B
Tue 02:01:07 PM 63.3100 -28.0640 251° West 429 494 34,000  Level FlightAware ADS-B
Tue 02:01:47 PM 63.2850 -28.2310 252° West 429 494 34,000  Level FlightAware ADS-B
Tue 02:02:32 PM 63.2560 -28.4180 251° West 429 494 34,000  Level FlightAware ADS-B
Tue 02:03:12 PM 63.2310 -28.5750 251° West 429 494 34,000  Level FlightAware ADS-B
Tue 02:03:52 PM 63.2080 -28.7150 252° West 429 494 34,000  Level FlightAware ADS-B
Tue 02:04:32 PM 63.1850 -28.8560 250° West 429 494 34,000  Level FlightAware ADS-B
Tue 02:05:12 PM 63.1610 -28.9970 249° West 429 494 34,000  Level FlightAware ADS-B
Tue 02:05:52 PM 63.1380 -29.1370 250° West 429 494 34,000  Level FlightAware ADS-B
Tue 02:06:32 PM 63.1150 -29.2770 250° West 429 494 34,000  Level FlightAware ADS-B
Tue 02:07:12 PM 63.0920 -29.4170 250° West 429 494 34,000  Level FlightAware ADS-B
Tue 02:08:02 PM 63.0630 -29.5920 250° West 429 494 34,000  Level FlightAware ADS-B
Tue 02:08:42 PM 63.0400 -29.7320 250° West 429 494 34,000  Level FlightAware ADS-B
Tue 02:09:22 PM 63.0170 -29.8720 250° West 429 494 34,000  Level FlightAware ADS-B
Tue 02:10:00 PM 63.0000 -30.0000 251° West 426 490 34,000  Level ETMS Enhanced Traffic Management System
Tue 02:10:02 PM 62.9940 -30.0120 250° West 429 494 34,000  Level FlightAware ADS-B
Tue 02:10:42 PM 62.9710 -30.1510 250° West 429 494 34,000  Level FlightAware ADS-B
Tue 02:11:32 PM 62.9420 -30.3260 250° West 429 494 34,000  Level FlightAware ADS-B
Tue 02:12:12 PM 62.9190 -30.4650 250° West 429 494 34,000  Level FlightAware ADS-B
Tue 02:14:00 PM 62.8486 -30.8957 250° West  Level FlightAware Approximate
Tue 02:15:00 PM 62.8089 -31.1340 250° West  Level FlightAware Approximate
Tue 02:16:00 PM 62.6839 -31.9584 250° West 426 490 34,000  Level FlightAware Transoceanic
Tue 02:17:00 PM 62.6424 -32.2002 249° West 426 490 34,000  Level FlightAware Transoceanic
Tue 02:18:00 PM 62.6006 -32.4414 249° West 426 490 34,000  Level FlightAware Transoceanic
Tue 02:19:00 PM 62.5584 -32.6818 249° West 426 490 34,000  Level FlightAware Transoceanic
Tue 02:20:00 PM 62.5157 -32.9216 249° West 426 490 34,000  Level FlightAware Transoceanic
Tue 02:21:00 PM 62.4727 -33.1606 249° West 426 490 34,000  Level FlightAware Transoceanic
Tue 02:22:00 PM 62.4292 -33.3990 248° West 426 490 34,000  Level FlightAware Transoceanic
Tue 02:23:00 PM 62.3853 -33.6367 248° West 426 490 34,000  Level FlightAware Transoceanic
Tue 02:24:00 PM 62.3410 -33.8737 248° West 426 490 34,000  Level FlightAware Transoceanic
Tue 02:25:00 PM 62.2963 -34.1100 248° West 426 490 34,000  Level FlightAware Transoceanic
Tue 02:26:00 PM 62.2513 -34.3456 248° West 426 490 34,000  Level FlightAware Transoceanic
Tue 02:27:00 PM 62.2058 -34.5805 247° West 426 490 34,000  Level FlightAware Transoceanic
Tue 02:28:00 PM 62.1599 -34.8146 247° West 426 490 34,000  Level FlightAware Transoceanic
Tue 02:29:00 PM 62.1136 -35.0481 247° West 426 490 34,000  Level FlightAware Transoceanic
Tue 02:30:00 PM 62.0670 -35.2808 247° West 426 490 34,000  Level FlightAware Transoceanic
Tue 02:31:00 PM 62.0199 -35.5129 247° West 426 490 34,000  Level FlightAware Transoceanic
Tue 02:32:00 PM 61.9725 -35.7442 246° West 426 490 34,000  Level FlightAware Transoceanic
Tue 02:33:00 PM 61.9246 -35.9748 246° West 426 490 34,000  Level FlightAware Transoceanic
Tue 02:34:00 PM 61.8764 -36.2046 246° West 426 490 34,000  Level FlightAware Transoceanic
Tue 02:35:00 PM 61.8279 -36.4338 246° West 426 490 34,000  Level FlightAware Transoceanic
Tue 02:36:00 PM 61.7789 -36.6622 245° Southwest 426 490 34,000  Level FlightAware Transoceanic
Tue 02:37:00 PM 61.7295 -36.8899 245° Southwest 426 490 34,000  Level FlightAware Transoceanic
Tue 02:38:00 PM 61.6798 -37.1168 245° Southwest 426 490 34,000  Level FlightAware Transoceanic
Tue 02:39:00 PM 61.6297 -37.3430 245° Southwest 426 490 34,000  Level FlightAware Transoceanic
Tue 02:40:00 PM 61.5792 -37.5685 245° Southwest 426 490 34,000  Level FlightAware Transoceanic
Tue 02:41:00 PM 61.5284 -37.7933 244° Southwest 426 490 34,000  Level FlightAware Transoceanic
Tue 02:42:00 PM 61.4772 -38.0173 244° Southwest 426 490 34,000  Level FlightAware Transoceanic
Tue 02:43:00 PM 61.4256 -38.2405 244° Southwest 426 490 34,000  Level FlightAware Transoceanic
Tue 02:44:00 PM 61.3736 -38.4631 244° Southwest 426 490 34,000  Level FlightAware Transoceanic
Tue 02:45:00 PM 61.3213 -38.6848 244° Southwest 426 490 34,000  Level FlightAware Transoceanic
Tue 02:46:00 PM 61.2687 -38.9059 244° Southwest 426 490 34,000  Level FlightAware Transoceanic
Tue 02:47:00 PM 61.2156 -39.1262 243° Southwest 426 490 34,000  Level FlightAware Transoceanic
Tue 02:48:00 PM 61.1623 -39.3458 243° Southwest 426 490 34,000  Level FlightAware Transoceanic
Tue 02:49:00 PM 61.1085 -39.5646 243° Southwest 426 490 34,000  Level FlightAware Transoceanic
Tue 02:50:00 PM 61.0544 -39.7827 243° Southwest 426 490 34,000  Level FlightAware Transoceanic
Tue 02:51:00 PM 60.9980 -39.9915 241° Southwest  Level FlightAware Approximate
Tue 02:51:00 PM 61.0000 -40.0000 237° Southwest 442 509 34,000  Level ETMS Enhanced Traffic Management System
Tue 02:52:00 PM 60.9412 -40.1996 241° Southwest  Level FlightAware Approximate
Tue 02:53:00 PM 60.8840 -40.4069 241° Southwest  Level FlightAware Approximate
Tue 02:54:00 PM 60.8266 -40.6135 240° Southwest  Level FlightAware Approximate
Tue 02:55:00 PM 60.7688 -40.8193 240° Southwest  Level FlightAware Approximate
Tue 02:56:00 PM 60.7108 -41.0244 240° Southwest  Level FlightAware Approximate
Tue 02:57:00 PM 60.5179 -41.4574 235° Southwest 442 509 34,000  Level FlightAware Transoceanic
Tue 02:57:04 PM 60.5667 -41.2500 234° Southwest 450 518 34,000  Level Gander Center
Tue 02:58:00 PM 60.4478 -41.6621 235° Southwest 442 509 34,000  Level FlightAware Transoceanic
Tue 02:58:04 PM 60.5000 -41.4667 238° Southwest 460 529 34,000  Level Gander Center
Tue 02:59:00 PM 60.3773 -41.8658 235° Southwest 442 509 34,000  Level FlightAware Transoceanic
Tue 02:59:04 PM 60.4167 -41.6500 227° Southwest 460 529 34,000  Level Gander Center
Tue 03:00:00 PM 60.3065 -42.0687 235° Southwest 442 509 34,000  Level FlightAware Transoceanic
Tue 03:00:04 PM 60.3500 -41.8667 238° Southwest 460 529 34,000  Level Gander Center
Tue 03:01:00 PM 60.2355 -42.2707 235° Southwest 442 509 34,000  Level FlightAware Transoceanic
Tue 03:01:04 PM 60.2667 -42.0833 232° Southwest 460 529 34,000  Level Gander Center
Tue 03:02:00 PM 60.1641 -42.4718 234° Southwest 442 509 34,000  Level FlightAware Transoceanic
Tue 03:02:04 PM 60.2167 -42.2833 243° Southwest 460 529 34,000  Level Gander Center
Tue 03:03:04 PM 60.1333 -42.4667 228° Southwest 460 529 34,000  Level Gander Center
Tue 03:04:04 PM 60.0667 -42.6833 238° Southwest 460 529 34,000  Level Gander Center
Tue 03:05:04 PM 60.0000 -42.8833 236° Southwest 450 518 34,000  Level Gander Center
Tue 03:06:04 PM 59.9167 -43.1000 233° Southwest 460 529 34,000  Level Gander Center
Tue 03:07:04 PM 59.8500 -43.3167 239° Southwest 460 529 34,000  Level Gander Center
Tue 03:08:04 PM 59.7667 -43.4833 225° Southwest 450 518 34,000  Level Gander Center
Tue 03:09:04 PM 59.6833 -43.7000 233° Southwest 450 518 34,000  Level Gander Center
Tue 03:10:04 PM 59.6167 -43.9000 237° Southwest 450 518 34,000  Level Gander Center
Tue 03:11:04 PM 59.5333 -44.1167 233° Southwest 450 518 34,000  Level Gander Center
Tue 03:12:04 PM 59.4667 -44.2833 232° Southwest 450 518 34,000  Level Gander Center
Tue 03:13:04 PM 59.3833 -44.4833 231° Southwest 450 518 34,000  Level Gander Center
Tue 03:14:04 PM 59.3167 -44.6833 237° Southwest 450 518 34,000  Level Gander Center
Tue 03:15:04 PM 59.2500 -44.8500 232° Southwest 450 518 34,000  Level Gander Center
Tue 03:16:04 PM 59.1667 -45.0667 233° Southwest 450 518 34,000  Level Gander Center
Tue 03:17:04 PM 59.0833 -45.2667 231° Southwest 450 518 34,000  Level Gander Center
Tue 03:18:04 PM 59.0000 -45.4333 226° Southwest 450 518 34,000  Level Gander Center
Tue 03:19:04 PM 58.9333 -45.6333 237° Southwest 450 518 34,000  Level Gander Center
Tue 03:20:04 PM 58.8667 -45.8167 235° Southwest 450 518 34,000  Level Gander Center
Tue 03:21:04 PM 58.7833 -46.0167 231° Southwest 450 518 34,000  Level Gander Center
Tue 03:22:04 PM 58.7000 -46.1833 226° Southwest 450 518 34,000  Level Gander Center
Tue 03:23:04 PM 58.6167 -46.3833 231° Southwest 450 518 34,000  Level Gander Center
Tue 03:24:04 PM 58.5500 -46.5833 237° Southwest 450 518 34,000  Level Gander Center
Tue 03:25:04 PM 58.4667 -46.7500 226° Southwest 450 518 34,000  Level Gander Center
Tue 03:26:04 PM 58.3833 -46.9333 229° Southwest 450 518 34,000  Level Gander Center
Tue 03:27:04 PM 58.3167 -47.1167 235° Southwest 450 518 34,000  Level Gander Center
Tue 03:28:04 PM 58.2333 -47.3167 232° Southwest 450 518 34,000  Level Gander Center
Tue 03:29:04 PM 58.1500 -47.4833 227° Southwest 450 518 34,000  Level Gander Center
Tue 03:30:04 PM 58.0667 -47.6667 229° Southwest 450 518 34,000  Level Gander Center
Tue 03:31:04 PM 57.9833 -47.8333 227° Southwest 440 506 34,000  Level Gander Center
Tue 03:32:04 PM 57.9167 -48.0167 236° Southwest 440 506 34,000  Level Gander Center
Tue 03:33:04 PM 57.8333 -48.2000 230° Southwest 440 506 34,000  Level Gander Center
Tue 03:34:04 PM 57.7500 -48.3500 224° Southwest 440 506 34,000  Level Gander Center
Tue 03:35:04 PM 57.6833 -48.5333 236° Southwest 440 506 34,000  Level Gander Center
Tue 03:36:04 PM 57.6000 -48.6833 224° Southwest 440 506 34,000  Level Gander Center
Tue 03:37:04 PM 57.5167 -48.8833 232° Southwest 440 506 34,000  Level Gander Center
Tue 03:38:04 PM 57.4500 -49.0167 227° Southwest 440 506 34,000  Level Gander Center
Tue 03:39:04 PM 57.3667 -49.2167 232° Southwest 440 506 34,000  Level Gander Center
Tue 03:40:04 PM 57.2833 -49.3833 227° Southwest 430 495 34,000  Level Gander Center
Tue 03:41:04 PM 57.2000 -49.5333 224° Southwest 430 495 34,000  Level Gander Center
Tue 03:42:04 PM 57.1167 -49.7167 230° Southwest 430 495 34,000  Level Gander Center
Tue 03:43:04 PM 57.0333 -49.8667 224° Southwest 430 495 34,000  Level Gander Center
Tue 03:44:00 PM 57.0000 -50.0000 237° Southwest 443 510 34,000  Level ETMS Enhanced Traffic Management System
Tue 03:44:04 PM 56.9667 -50.0500 236° Southwest 430 495 34,000  Level Gander Center
Tue 03:45:04 PM 56.9167 -50.2167 237° Southwest 430 495 34,000  Level Gander Center
Tue 03:47:00 PM 56.7879 -50.5632 236° Southwest  Level FlightAware Approximate
Tue 03:54:00 PM 56.3169 -51.8016 236° Southwest  Level FlightAware Approximate
Tue 03:55:00 PM 56.2488 -51.9763 235° Southwest  Level FlightAware Approximate
Tue 03:56:00 PM 56.1805 -52.1504 235° Southwest  Level FlightAware Approximate
Tue 03:57:00 PM 56.1120 -52.3239 235° Southwest  Level FlightAware Approximate
Tue 03:58:00 PM 56.0432 -52.4967 235° Southwest  Level FlightAware Approximate
Tue 03:59:00 PM 55.9742 -52.6690 234° Southwest  Level FlightAware Approximate
Tue 04:00:00 PM 55.9049 -52.8406 234° Southwest  Level FlightAware Approximate
Tue 04:00:53 PM 55.7833 -53.0667 234° Southwest 430 495 34,000  Level Gander Center
Tue 04:01:00 PM 55.8354 -53.0116 234° Southwest  Level FlightAware Approximate
Tue 04:01:53 PM 55.7167 -53.2667 239° Southwest 440 506 34,000  Level Gander Center
Tue 04:02:00 PM 55.7662 -53.1828 234° Southwest  Level FlightAware Approximate
Tue 04:02:53 PM 55.6333 -53.4333 229° Southwest 440 506 34,000  Level Gander Center
Tue 04:03:00 PM 55.6968 -53.3533 234° Southwest  Level FlightAware Approximate
Tue 04:03:53 PM 55.5833 -53.5833 240° Southwest 430 495 34,000  Level Gander Center
Tue 04:04:00 PM 55.6272 -53.5233 234° Southwest  Level FlightAware Approximate
Tue 04:04:53 PM 55.5167 -53.7833 240° Southwest 430 495 34,000  Level Gander Center
Tue 04:05:00 PM 55.5574 -53.6926 234° Southwest  Level FlightAware Approximate
Tue 04:05:53 PM 55.4333 -53.9500 229° Southwest 420 483 34,000  Level Gander Center
Tue 04:08:00 PM 55.3069 -54.2566 234° Southwest  Level FlightAware Approximate
Tue 04:15:00 PM 54.8098 -55.4266 234° Southwest  Level FlightAware Approximate
Tue 04:16:00 PM 54.7379 -55.5914 233° Southwest  Level FlightAware Approximate
Tue 04:16:50 PM 54.6333 -55.7833 234° Southwest 440 506 34,000  Level Moncton Center
Tue 04:17:00 PM 54.6657 -55.7556 233° Southwest  Level FlightAware Approximate
Tue 04:17:50 PM 54.5500 -55.9500 229° Southwest 440 506 33,900  Level Moncton Center
Tue 04:18:00 PM 54.5873 -55.8972 234° Southwest  Level FlightAware Approximate
Tue 04:18:50 PM 54.4667 -56.1000 226° Southwest 440 506 34,900  Level Moncton Center
Tue 04:19:00 PM 54.5178 -56.0642 234° Southwest  Level FlightAware Approximate
Tue 04:19:53 PM 54.4000 -56.2500 233° Southwest 450 518 35,800  Level Gander Center
Tue 04:20:00 PM 54.4481 -56.2306 234° Southwest  Level FlightAware Approximate
Tue 04:20:53 PM 54.3167 -56.4333 232° Southwest 450 518 35,900  Level Gander Center
Tue 04:21:00 PM 54.3781 -56.3964 234° Southwest  Level FlightAware Approximate
Tue 04:21:53 PM 54.2500 -56.5833 233° Southwest 450 518 35,900  Level Gander Center
Tue 04:22:00 PM 54.3079 -56.5617 234° Southwest  Level FlightAware Approximate
Tue 04:22:50 PM 54.1500 -56.7333 221° Southwest 450 518 35,900  Level Moncton Center
Tue 04:23:50 PM 54.0667 -56.9000 230° Southwest 450 518 35,900  Level Moncton Center
Tue 04:24:50 PM 53.9833 -57.0500 227° Southwest 440 506 35,900  Level Moncton Center
Tue 04:25:53 PM 53.9000 -57.2167 230° Southwest 450 518 35,900  Level Gander Center
Tue 04:26:53 PM 53.8167 -57.3667 227° Southwest 450 518 35,900  Level Gander Center
Tue 04:27:53 PM 53.7333 -57.5500 233° Southwest 450 518 35,900  Level Gander Center
Tue 04:28:53 PM 53.6667 -57.7000 233° Southwest 450 518 35,900  Level Gander Center
Tue 04:29:50 PM 53.5833 -57.8333 224° Southwest 450 518 35,900  Level Moncton Center
Tue 04:30:50 PM 53.4833 -58.0167 228° Southwest 450 518 35,900  Level Moncton Center
Tue 04:31:50 PM 53.4000 -58.1667 227° Southwest 450 518 35,900  Level Moncton Center
Tue 04:32:50 PM 53.3167 -58.3167 227° Southwest 460 529 35,900  Level Moncton Center
Tue 04:33:50 PM 53.2333 -58.4667 227° Southwest 460 529 35,900  Level Moncton Center
Tue 04:34:50 PM 53.1500 -58.6167 227° Southwest 460 529 35,900  Level Moncton Center
Tue 04:35:50 PM 53.0667 -58.7667 227° Southwest 460 529 35,900  Level Moncton Center
Tue 04:36:50 PM 52.9833 -58.9167 227° Southwest 460 529 35,900  Level Moncton Center
Tue 04:37:50 PM 52.8833 -59.1000 228° Southwest 460 529 35,900  Level Moncton Center
Tue 04:38:50 PM 52.8000 -59.2500 227° Southwest 460 529 35,900  Level Moncton Center
Tue 04:39:53 PM 52.7167 -59.4000 228° Southwest 450 518 35,900  Level Gander Center
Tue 04:40:53 PM 52.6333 -59.5500 228° Southwest 450 518 35,900  Level Gander Center
Tue 04:41:53 PM 52.5333 -59.7167 225° Southwest 450 518 35,900  Level Gander Center
Tue 04:42:53 PM 52.4500 -59.8500 224° Southwest 450 518 35,900  Level Gander Center
Tue 04:43:50 PM 52.3667 -59.9833 224° Southwest 450 518 35,900  Level Moncton Center
Tue 04:44:50 PM 52.2833 -60.1500 231° Southwest 450 518 35,900  Level Moncton Center
Tue 04:45:50 PM 52.2000 -60.2667 221° Southwest 450 518 35,900  Level Moncton Center
Tue 04:46:50 PM 52.1000 -60.4167 223° Southwest 450 518 35,900  Level Moncton Center
Tue 04:47:50 PM 52.0167 -60.5833 231° Southwest 450 518 35,900  Level Moncton Center
Tue 04:48:50 PM 51.9333 -60.7333 228° Southwest 450 518 35,900  Level Moncton Center
Tue 04:49:50 PM 51.8500 -60.8833 228° Southwest 450 518 35,900  Level Moncton Center
Tue 04:50:50 PM 51.7500 -61.0167 220° Southwest 450 518 35,900  Level Moncton Center
Tue 04:51:50 PM 51.6667 -61.1667 228° Southwest 450 518 35,900  Level Moncton Center
Tue 04:52:50 PM 51.5833 -61.3000 225° Southwest 450 518 35,900  Level Moncton Center
Tue 04:53:50 PM 51.4833 -61.4333 220° Southwest 450 518 35,900  Level Moncton Center
Tue 04:54:50 PM 51.4000 -61.5833 228° Southwest 450 518 35,900  Level Moncton Center
Tue 04:55:50 PM 51.3167 -61.7167 225° Southwest 450 518 35,900  Level Moncton Center
Tue 04:56:53 PM 51.2167 -61.8667 223° Southwest 450 518 35,900  Level Gander Center
Tue 04:57:53 PM 51.1333 -62.0333 231° Southwest 450 518 35,900  Level Gander Center
Tue 04:58:50 PM 51.0500 -62.1667 225° Southwest 450 518 35,900  Level Moncton Center
Tue 04:59:50 PM 50.9667 -62.2667 217° Southwest 450 518 35,900  Level Moncton Center
Tue 05:00:50 PM 50.8667 -62.4333 226° Southwest 450 518 35,900  Level Moncton Center
Tue 05:01:50 PM 50.7833 -62.5667 225° Southwest 450 518 35,900  Level Moncton Center
Tue 05:02:50 PM 50.6833 -62.7000 220° Southwest 450 518 35,900  Level Moncton Center
Tue 05:03:50 PM 50.6000 -62.8333 225° Southwest 450 518 35,900  Level Moncton Center
Tue 05:04:50 PM 50.5000 -62.9833 224° Southwest 450 518 35,900  Level Moncton Center
Tue 05:05:50 PM 50.4000 -63.1167 220° Southwest 450 518 35,900  Level Moncton Center
Tue 05:06:50 PM 50.3167 -63.2500 226° Southwest 450 518 35,900  Level Moncton Center
Tue 05:07:50 PM 50.2333 -63.3833 226° Southwest 440 506 35,900  Level Moncton Center
Tue 05:08:50 PM 50.1500 -63.5167 226° Southwest 440 506 35,900  Level Moncton Center
Tue 05:09:53 PM 50.0500 -63.6500 221° Southwest 450 518 35,900  Level Gander Center
Tue 05:10:53 PM 49.9667 -63.7833 226° Southwest 440 506 35,900  Level Gander Center
Tue 05:11:50 PM 49.8833 -63.9000 222° Southwest 440 506 35,900  Level Moncton Center
Tue 05:12:50 PM 49.7833 -64.0333 221° Southwest 450 518 35,900  Level Moncton Center
Tue 05:13:50 PM 49.7000 -64.1667 226° Southwest 450 518 35,900  Level Moncton Center
Tue 05:14:50 PM 49.5833 -64.3000 217° Southwest 450 518 35,900  Level Moncton Center
Tue 05:15:50 PM 49.5000 -64.4167 222° Southwest 450 518 35,900  Level Moncton Center
Tue 05:16:53 PM 49.4000 -64.5667 224° Southwest 450 518 35,900  Level Gander Center
Tue 05:17:50 PM 49.3167 -64.7000 226° Southwest 450 518 35,900  Level Moncton Center
Tue 05:18:50 PM 49.2333 -64.8333 226° Southwest 460 529 35,900  Level Moncton Center
Tue 05:19:50 PM 49.1333 -64.9667 221° Southwest 450 518 35,900  Level Moncton Center
Tue 05:20:50 PM 49.0333 -65.0833 217° Southwest 450 518 35,900  Level Moncton Center
Tue 05:21:50 PM 48.9333 -65.2167 221° Southwest 460 529 35,900  Level Moncton Center
Tue 05:22:50 PM 48.8500 -65.3333 223° Southwest 450 518 35,900  Level Moncton Center
Tue 05:23:50 PM 48.7500 -65.4833 225° Southwest 460 529 35,900  Level Moncton Center
Tue 05:24:50 PM 48.6667 -65.6167 227° Southwest 460 529 35,900  Level Moncton Center
Tue 05:25:50 PM 48.5667 -65.7333 218° Southwest 450 518 35,900  Level Moncton Center
Tue 05:26:50 PM 48.4833 -65.8667 227° Southwest 460 529 35,900  Level Moncton Center
Tue 05:27:50 PM 48.3833 -65.9833 218° Southwest 450 518 35,900  Level Moncton Center
Tue 05:28:50 PM 48.2667 -66.1000 214° Southwest 450 518 35,900  Level Moncton Center
Tue 05:29:50 PM 48.1833 -66.2500 230° Southwest 460 529 35,900  Level Moncton Center
Tue 05:30:50 PM 48.0833 -66.3500 214° Southwest 460 529 35,900  Level Moncton Center
Tue 05:31:50 PM 48.0000 -66.5000 230° Southwest 460 529 35,900  Level Moncton Center
Tue 05:32:50 PM 47.9000 -66.6167 218° Southwest 450 518 35,900  Level Moncton Center
Tue 05:33:50 PM 47.8000 -66.7333 218° Southwest 450 518 35,900  Level Moncton Center
Tue 05:34:50 PM 47.7000 -66.8667 222° Southwest 460 529 35,900  Level Moncton Center
Tue 05:35:50 PM 47.6000 -66.9833 218° Southwest 460 529 35,900  Level Moncton Center
Tue 05:36:50 PM 47.5167 -67.1000 223° Southwest 460 529 35,900  Level Moncton Center
Tue 05:37:50 PM 47.4167 -67.2500 225° Southwest 460 529 35,900  Level Moncton Center
Tue 05:38:50 PM 47.3167 -67.3333 209° Southwest 460 529 35,900  Level Moncton Center
Tue 05:39:50 PM 47.1833 -67.4000 199° South 460 529 35,900  Level Moncton Center
Tue 05:40:50 PM 47.0667 -67.5000 210° Southwest 460 529 35,900 15 Level Moncton Center
Tue 05:46:32 PM 46.4180 -67.9330 210° Southwest 464 534 36,000 16 Climbing FlightAware ADS-B
Tue 05:47:12 PM 46.3390 -67.9850 204° Southwest 464 534 36,000  Level FlightAware ADS-B
Tue 05:47:42 PM 46.2800 -68.0230 204° Southwest 463 533 36,000  Level FlightAware ADS-B
Tue 05:48:22 PM 46.2020 -68.0730 204° Southwest 463 533 36,000  Level FlightAware ADS-B
Tue 05:49:07 PM 46.1150 -68.1290 204° Southwest 461 531 36,000 -71 Level FlightAware ADS-B
Tue 05:49:47 PM 46.0360 -68.1790 204° Southwest 461 531 35,900  Descending FlightAware ADS-B
Tue 05:50:32 PM 45.9480 -68.2350 204° Southwest 460 529 36,000 71 Climbing FlightAware ADS-B
Tue 05:51:12 PM 45.8760 -68.2810 204° Southwest 460 529 36,000  Level FlightAware ADS-B
Tue 05:51:57 PM 45.7850 -68.3380 204° Southwest 460 529 36,000  Level FlightAware ADS-B
Tue 05:52:32 PM 45.7160 -68.3820 204° Southwest 461 531 36,000  Level FlightAware ADS-B
Tue 05:53:17 PM 45.6280 -68.4370 204° Southwest 462 532 36,000  Level FlightAware ADS-B
Tue 05:54:02 PM 45.5390 -68.4920 203° Southwest 462 532 36,000  Level FlightAware ADS-B
Tue 05:54:42 PM 45.4620 -68.5410 204° Southwest 462 532 36,000  Level FlightAware ADS-B
Tue 05:55:27 PM 45.3730 -68.5960 203° Southwest 463 533 36,000  Level FlightAware ADS-B
Tue 05:56:07 PM 45.2950 -68.6440 203° Southwest 463 533 36,000  Level FlightAware ADS-B
Tue 05:56:47 PM 45.2170 -68.6930 204° Southwest 462 532 36,000  Level FlightAware ADS-B
Tue 05:57:32 PM 45.1290 -68.7470 203° Southwest 462 532 36,000  Level FlightAware ADS-B
Tue 05:58:12 PM 45.0500 -68.7950 203° Southwest 462 532 36,000  Level FlightAware ADS-B
Tue 05:58:57 PM 44.9620 -68.8490 203° Southwest 463 533 36,000  Level FlightAware ADS-B
Tue 05:59:37 PM 44.8840 -68.8970 204° Southwest 463 533 36,000  Level FlightAware ADS-B
Tue 06:00:17 PM 44.8080 -68.9440 204° Southwest 461 531 36,000  Level FlightAware ADS-B
Tue 06:01:02 PM 44.7170 -68.9980 203° Southwest 462 532 36,000  Level FlightAware ADS-B
Tue 06:01:47 PM 44.6320 -69.0500 204° Southwest 462 532 36,000  Level FlightAware ADS-B
Tue 06:02:27 PM 44.5560 -69.0960 203° Southwest 462 532 36,000  Level FlightAware ADS-B
Tue 06:03:12 PM 44.4630 -69.1510 203° Southwest 463 533 36,000  Level FlightAware ADS-B
Tue 06:03:52 PM 44.3830 -69.2000 204° Southwest 464 534 36,000  Level FlightAware ADS-B
Tue 06:04:32 PM 44.3080 -69.2440 203° Southwest 464 534 36,000 -71 Level FlightAware ADS-B
Tue 06:05:17 PM 44.2140 -69.3000 203° Southwest 461 531 35,900 -565 Descending FlightAware ADS-B
Tue 06:05:57 PM 44.1370 -69.3460 203° Southwest 448 516 35,200 -1,341 Descending FlightAware ADS-B
Tue 06:06:42 PM 44.0530 -69.3950 203° Southwest 442 509 34,000 -1,624 Descending FlightAware ADS-B
Tue 06:07:22 PM 43.9770 -69.4400 203° Southwest 435 501 32,900 -1,575 Descending FlightAware ADS-B
Tue 06:08:02 PM 43.9030 -69.4840 203° Southwest 428 493 31,900 -1,553 Descending FlightAware ADS-B
Tue 06:08:47 PM 43.8220 -69.5310 203° Southwest 420 483 30,700 -1,553 Descending FlightAware ADS-B
Tue 06:09:27 PM 43.7500 -69.5740 203° Southwest 412 474 29,700 -1,482 Descending FlightAware ADS-B
Tue 06:10:12 PM 43.6720 -69.6190 203° Southwest 404 465 28,600 -1,482 Descending FlightAware ADS-B
Tue 06:10:52 PM 43.6050 -69.6570 202° Southwest 397 457 27,600 -1,500 Descending FlightAware ADS-B
Tue 06:11:32 PM 43.5380 -69.6960 203° Southwest 389 448 26,600 -1,553 Descending FlightAware ADS-B
Tue 06:12:17 PM 43.4620 -69.7410 203° Southwest 381 438 25,400 -1,425 Descending FlightAware ADS-B
Tue 06:12:52 PM 43.4130 -69.7690 203° Southwest 377 434 24,700 -1,446 Descending FlightAware ADS-B
Tue 06:15:32 PM 43.1590 -69.9150 203° Southwest 351 404 20,700 -1,500 Descending FlightAware ADS-B
Tue 06:16:12 PM 43.1010 -69.9480 203° Southwest 346 398 19,700 -1,482 Descending FlightAware ADS-B
Tue 06:16:57 PM 43.0370 -69.9850 203° Southwest 341 392 18,600 -1,553 Descending FlightAware ADS-B
Tue 06:17:37 PM 42.9730 -70.0210 202° Southwest 336 387 17,500 -1,694 Descending FlightAware ADS-B
Tue 06:18:22 PM 42.9150 -70.0540 203° Southwest 342 394 16,200 -1,694 Descending FlightAware ADS-B
Tue 06:19:02 PM 42.8520 -70.0900 203° Southwest 335 386 15,100 -1,575 Descending FlightAware ADS-B
Tue 06:19:42 PM 42.7950 -70.1220 202° Southwest 331 381 14,100 -1,520 Descending FlightAware ADS-B
Tue 06:20:17 PM 42.7450 -70.1500 202° Southwest 324 373 13,200 -500 Descending FlightAware ADS-B
Tue 06:20:54 PM 42.7000 -70.1667 202° Southwest 330 380 13,500 -947 Climbing Moncton Center
Tue 06:21:14 PM 42.6803 -70.1892 220° Southwest 334 384 12,300 -1,875 Descending Boston Center
Tue 06:22:14 PM 42.6064 -70.2425 208° Southwest 322 371 11,000 -650 Descending Boston Center
Tue 06:23:14 PM 42.5706 -70.3397 243° Southwest 293 337 11,000 -400 Level Boston Center
Tue 06:24:14 PM 42.5369 -70.4422 246° West 290 334 10,200 -900 Descending Boston Center
Tue 06:25:14 PM 42.5056 -70.5447 247° West 290 334 9,200 -600 Descending Boston Center
Tue 06:26:14 PM 42.4756 -70.6356 246° West 285 328 9,000 -100 Descending Boston Center
Tue 06:27:14 PM 42.4458 -70.7350 248° West 280 322 9,000  Level Boston Center
Tue 06:28:14 PM 42.4181 -70.8258 248° West 275 316 9,000 -200 Level Boston Center
Tue 06:29:14 PM 42.3817 -70.9025 237° Southwest 253 291 8,600 -911 Descending Boston Center
Tue 06:29:33 PM 42.3667 -70.9333 237° Southwest 244 281 7,800 -1,890 Descending KA90
Tue 06:30:27 PM 42.3000 -70.9500 190° South 238 274 6,300 -947 Descending KA90
Tue 06:31:27 PM 42.2500 -70.9667 194° South 209 241 6,000 -667 Descending KA90
Tue 06:37:57 PM 42.3170 -71.0280 20° North 162 186 1,300 -814 Descending FlightAware ADS-B
Tue 06:38:27 PM 42.3500 -71.0167 20° North 158 182 300 -2,000 Descending KA90
Tue 06:40:00 PM 42.3500 -71.0000 324° Northwest  Level FlightAware Approximate

Login

Don't have an account? Register now (free) for customized features, flight alerts, and more!